sensor_id;sensor_type;location;lat;lon;timestamp;pressure;altitude;pressure_sealevel;temperature
69545;BMP180;56766;52.260;20.746;2023-08-06T00:01:23;99389.40;;;18.70
69545;BMP180;56766;52.260;20.746;2023-08-06T00:03:51;99400.60;;;18.70
69545;BMP180;56766;52.260;20.746;2023-08-06T00:06:18;99416.20;;;18.70
69545;BMP180;56766;52.260;20.746;2023-08-06T00:08:45;99420.00;;;18.70
69545;BMP180;56766;52.260;20.746;2023-08-06T00:11:11;99409.80;;;18.70
69545;BMP180;56766;52.260;20.746;2023-08-06T00:13:39;99405.60;;;18.70
69545;BMP180;56766;52.260;20.746;2023-08-06T00:16:13;99389.40;;;18.60
69545;BMP180;56766;52.260;20.746;2023-08-06T00:18:40;99394.80;;;18.60
69545;BMP180;56766;52.260;20.746;2023-08-06T00:21:08;99379.00;;;18.60
69545;BMP180;56766;52.260;20.746;2023-08-06T00:23:34;99360.80;;;18.60
69545;BMP180;56766;52.260;20.746;2023-08-06T00:26:01;99358.80;;;18.52
69545;BMP180;56766;52.260;20.746;2023-08-06T00:28:28;99368.40;;;18.50
69545;BMP180;56766;52.260;20.746;2023-08-06T00:30:55;99371.20;;;18.50
69545;BMP180;56766;52.260;20.746;2023-08-06T00:33:23;99358.80;;;18.50
69545;BMP180;56766;52.260;20.746;2023-08-06T00:35:50;99348.60;;;18.50
69545;BMP180;56766;52.260;20.746;2023-08-06T00:38:17;99329.20;;;18.50
69545;BMP180;56766;52.260;20.746;2023-08-06T00:40:43;99320.80;;;18.50
69545;BMP180;56766;52.260;20.746;2023-08-06T00:43:10;99317.20;;;18.50
69545;BMP180;56766;52.260;20.746;2023-08-06T00:45:37;99308.40;;;18.42
69545;BMP180;56766;52.260;20.746;2023-08-06T00:48:06;99304.60;;;18.42
69545;BMP180;56766;52.260;20.746;2023-08-06T00:50:35;99286.20;;;18.40
69545;BMP180;56766;52.260;20.746;2023-08-06T00:53:02;99269.40;;;18.40
69545;BMP180;56766;52.260;20.746;2023-08-06T00:55:29;99250.60;;;18.40
69545;BMP180;56766;52.260;20.746;2023-08-06T00:57:56;99233.40;;;18.36
69545;BMP180;56766;52.260;20.746;2023-08-06T01:00:25;99218.80;;;18.30
69545;BMP180;56766;52.260;20.746;2023-08-06T01:02:53;99204.40;;;18.30
69545;BMP180;56766;52.260;20.746;2023-08-06T01:05:22;99189.00;;;18.26
69545;BMP180;56766;52.260;20.746;2023-08-06T01:11:44;99172.20;;;18.20
69545;BMP180;56766;52.260;20.746;2023-08-06T01:15:08;99165.60;;;18.20
69545;BMP180;56766;52.260;20.746;2023-08-06T01:17:40;99153.60;;;18.20
69545;BMP180;56766;52.260;20.746;2023-08-06T01:20:07;99143.80;;;18.20
69545;BMP180;56766;52.260;20.746;2023-08-06T01:22:34;99137.60;;;18.20
69545;BMP180;56766;52.260;20.746;2023-08-06T01:25:01;99124.60;;;18.20
69545;BMP180;56766;52.260;20.746;2023-08-06T01:27:49;99109.40;;;18.20
69545;BMP180;56766;52.260;20.746;2023-08-06T01:30:29;99104.40;;;18.20
69545;BMP180;56766;52.260;20.746;2023-08-06T01:33:04;99101.60;;;18.20
69545;BMP180;56766;52.260;20.746;2023-08-06T01:35:35;99100.40;;;18.20
69545;BMP180;56766;52.260;20.746;2023-08-06T01:38:02;99099.00;;;18.20
69545;BMP180;56766;52.260;20.746;2023-08-06T01:40:30;99097.60;;;18.20
69545;BMP180;56766;52.260;20.746;2023-08-06T01:42:57;99100.00;;;18.20
69545;BMP180;56766;52.260;20.746;2023-08-06T01:45:23;99091.00;;;18.20
69545;BMP180;56766;52.260;20.746;2023-08-06T01:47:50;99086.20;;;18.30
69545;BMP180;56766;52.260;20.746;2023-08-06T01:50:17;99085.60;;;18.30
69545;BMP180;56766;52.260;20.746;2023-08-06T01:52:43;99086.20;;;18.40
69545;BMP180;56766;52.260;20.746;2023-08-06T01:55:10;99082.20;;;18.40
69545;BMP180;56766;52.260;20.746;2023-08-06T01:57:37;99082.20;;;18.40
69545;BMP180;56766;52.260;20.746;2023-08-06T02:00:04;99070.20;;;18.42
69545;BMP180;56766;52.260;20.746;2023-08-06T02:02:31;99070.60;;;18.40
69545;BMP180;56766;52.260;20.746;2023-08-06T02:04:57;99060.40;;;18.40
69545;BMP180;56766;52.260;20.746;2023-08-06T02:07:25;99061.40;;;18.40
69545;BMP180;56766;52.260;20.746;2023-08-06T02:09:51;99058.20;;;18.40
69545;BMP180;56766;52.260;20.746;2023-08-06T02:12:18;99052.40;;;18.40
69545;BMP180;56766;52.260;20.746;2023-08-06T02:14:44;99041.80;;;18.40
69545;BMP180;56766;52.260;20.746;2023-08-06T02:17:11;99035.60;;;18.40
69545;BMP180;56766;52.260;20.746;2023-08-06T02:19:38;99032.40;;;18.40
69545;BMP180;56766;52.260;20.746;2023-08-06T02:22:05;99027.60;;;18.40
69545;BMP180;56766;52.260;20.746;2023-08-06T02:24:31;99027.60;;;18.40
69545;BMP180;56766;52.260;20.746;2023-08-06T02:27:00;99027.40;;;18.40
69545;BMP180;56766;52.260;20.746;2023-08-06T02:29:27;99026.60;;;18.40
69545;BMP180;56766;52.260;20.746;2023-08-06T02:31:55;99018.20;;;18.40
69545;BMP180;56766;52.260;20.746;2023-08-06T02:34:22;99025.00;;;18.40
69545;BMP180;56766;52.260;20.746;2023-08-06T02:36:53;99027.80;;;18.40
69545;BMP180;56766;52.260;20.746;2023-08-06T02:39:20;99024.20;;;18.40
69545;BMP180;56766;52.260;20.746;2023-08-06T02:41:46;99026.00;;;18.40
69545;BMP180;56766;52.260;20.746;2023-08-06T02:44:15;99024.20;;;18.40
69545;BMP180;56766;52.260;20.746;2023-08-06T02:46:44;99022.80;;;18.46
69545;BMP180;56766;52.260;20.746;2023-08-06T02:49:11;99022.20;;;18.50
69545;BMP180;56766;52.260;20.746;2023-08-06T02:51:38;99017.40;;;18.50
69545;BMP180;56766;52.260;20.746;2023-08-06T02:54:04;99014.00;;;18.50
69545;BMP180;56766;52.260;20.746;2023-08-06T02:56:34;99010.20;;;18.50
69545;BMP180;56766;52.260;20.746;2023-08-06T02:59:02;99016.20;;;18.60
69545;BMP180;56766;52.260;20.746;2023-08-06T03:01:29;99010.20;;;18.60
69545;BMP180;56766;52.260;20.746;2023-08-06T03:03:59;99013.20;;;18.60
69545;BMP180;56766;52.260;20.746;2023-08-06T03:06:25;99008.00;;;18.70
69545;BMP180;56766;52.260;20.746;2023-08-06T03:08:52;98998.40;;;18.70
69545;BMP180;56766;52.260;20.746;2023-08-06T03:11:19;98994.00;;;18.70
69545;BMP180;56766;52.260;20.746;2023-08-06T03:13:47;98984.20;;;18.70
69545;BMP180;56766;52.260;20.746;2023-08-06T03:16:15;98985.00;;;18.70
69545;BMP180;56766;52.260;20.746;2023-08-06T03:18:45;98974.40;;;18.70
69545;BMP180;56766;52.260;20.746;2023-08-06T03:21:12;98969.20;;;18.70
69545;BMP180;56766;52.260;20.746;2023-08-06T03:23:38;98966.60;;;18.70
69545;BMP180;56766;52.260;20.746;2023-08-06T03:26:05;98960.60;;;18.70
69545;BMP180;56766;52.260;20.746;2023-08-06T03:28:32;98955.20;;;18.70
69545;BMP180;56766;52.260;20.746;2023-08-06T03:31:01;98938.00;;;18.70
69545;BMP180;56766;52.260;20.746;2023-08-06T03:33:29;98924.40;;;18.72
69545;BMP180;56766;52.260;20.746;2023-08-06T03:35:56;98923.20;;;18.76
69545;BMP180;56766;52.260;20.746;2023-08-06T03:38:23;98915.00;;;18.80
69545;BMP180;56766;52.260;20.746;2023-08-06T03:40:50;98917.00;;;18.80
69545;BMP180;56766;52.260;20.746;2023-08-06T03:43:17;98909.80;;;18.80
69545;BMP180;56766;52.260;20.746;2023-08-06T03:45:45;98907.80;;;18.80
69545;BMP180;56766;52.260;20.746;2023-08-06T03:48:12;98908.20;;;18.86
69545;BMP180;56766;52.260;20.746;2023-08-06T03:50:39;98909.00;;;18.90
69545;BMP180;56766;52.260;20.746;2023-08-06T03:53:09;98904.20;;;18.90
69545;BMP180;56766;52.260;20.746;2023-08-06T03:55:40;98890.00;;;18.90
69545;BMP180;56766;52.260;20.746;2023-08-06T03:58:06;98877.20;;;18.90
69545;BMP180;56766;52.260;20.746;2023-08-06T04:00:33;98869.80;;;18.90
69545;BMP180;56766;52.260;20.746;2023-08-06T04:03:00;98850.40;;;18.90
69545;BMP180;56766;52.260;20.746;2023-08-06T04:05:27;98841.00;;;18.90
69545;BMP180;56766;52.260;20.746;2023-08-06T04:07:54;98838.60;;;19.00
69545;BMP180;56766;52.260;20.746;2023-08-06T04:10:20;98830.40;;;19.00
69545;BMP180;56766;52.260;20.746;2023-08-06T04:12:47;98823.40;;;19.00
69545;BMP180;56766;52.260;20.746;2023-08-06T04:15:14;98825.60;;;19.00
69545;BMP180;56766;52.260;20.746;2023-08-06T04:17:41;98828.80;;;19.10
69545;BMP180;56766;52.260;20.746;2023-08-06T04:20:08;98831.80;;;19.10
69545;BMP180;56766;52.260;20.746;2023-08-06T04:22:35;98836.00;;;19.18
69545;BMP180;56766;52.260;20.746;2023-08-06T04:25:02;98836.20;;;19.20
69545;BMP180;56766;52.260;20.746;2023-08-06T04:27:28;98832.80;;;19.20
69545;BMP180;56766;52.260;20.746;2023-08-06T04:29:55;98823.40;;;19.20
69545;BMP180;56766;52.260;20.746;2023-08-06T04:32:22;98821.00;;;19.30
69545;BMP180;56766;52.260;20.746;2023-08-06T04:34:48;98819.60;;;19.30
69545;BMP180;56766;52.260;20.746;2023-08-06T04:37:15;98805.00;;;19.38
69545;BMP180;56766;52.260;20.746;2023-08-06T04:39:42;98809.00;;;19.40
69545;BMP180;56766;52.260;20.746;2023-08-06T04:42:08;98804.20;;;19.44
69545;BMP180;56766;52.260;20.746;2023-08-06T04:44:35;98806.00;;;19.50
69545;BMP180;56766;52.260;20.746;2023-08-06T04:47:02;98804.40;;;19.50
69545;BMP180;56766;52.260;20.746;2023-08-06T04:49:29;98801.20;;;19.50
69545;BMP180;56766;52.260;20.746;2023-08-06T04:51:55;98798.80;;;19.52
69545;BMP180;56766;52.260;20.746;2023-08-06T04:54:22;98790.80;;;19.60
69545;BMP180;56766;52.260;20.746;2023-08-06T04:56:48;98794.60;;;19.60
69545;BMP180;56766;52.260;20.746;2023-08-06T04:59:15;98786.40;;;19.74
69545;BMP180;56766;52.260;20.746;2023-08-06T05:01:42;98795.20;;;19.84
69545;BMP180;56766;52.260;20.746;2023-08-06T05:04:08;98792.00;;;19.90
69545;BMP180;56766;52.260;20.746;2023-08-06T05:06:35;98792.80;;;20.00
69545;BMP180;56766;52.260;20.746;2023-08-06T05:09:04;98791.40;;;20.00
69545;BMP180;56766;52.260;20.746;2023-08-06T05:11:32;98786.80;;;20.10
69545;BMP180;56766;52.260;20.746;2023-08-06T05:13:59;98772.60;;;20.20
69545;BMP180;56766;52.260;20.746;2023-08-06T05:16:25;98766.00;;;20.30
69545;BMP180;56766;52.260;20.746;2023-08-06T05:18:52;98764.80;;;20.40
69545;BMP180;56766;52.260;20.746;2023-08-06T05:21:19;98760.00;;;20.50
69545;BMP180;56766;52.260;20.746;2023-08-06T05:23:45;98752.80;;;20.60
69545;BMP180;56766;52.260;20.746;2023-08-06T05:26:12;98750.80;;;20.68
69545;BMP180;56766;52.260;20.746;2023-08-06T05:28:41;98745.60;;;20.72
69545;BMP180;56766;52.260;20.746;2023-08-06T05:31:07;98743.40;;;20.90
69545;BMP180;56766;52.260;20.746;2023-08-06T05:33:34;98734.80;;;21.00
69545;BMP180;56766;52.260;20.746;2023-08-06T05:36:00;98731.20;;;21.00
69545;BMP180;56766;52.260;20.746;2023-08-06T05:38:27;98725.00;;;21.10
69545;BMP180;56766;52.260;20.746;2023-08-06T05:40:54;98722.40;;;21.20
69545;BMP180;56766;52.260;20.746;2023-08-06T05:43:22;98714.00;;;21.32
69545;BMP180;56766;52.260;20.746;2023-08-06T05:45:51;98712.00;;;21.48
69545;BMP180;56766;52.260;20.746;2023-08-06T05:48:18;98711.20;;;21.60
69545;BMP180;56766;52.260;20.746;2023-08-06T05:50:45;98708.20;;;21.86
69545;BMP180;56766;52.260;20.746;2023-08-06T05:53:11;98705.80;;;22.00
69545;BMP180;56766;52.260;20.746;2023-08-06T05:55:39;98697.40;;;22.20
69545;BMP180;56766;52.260;20.746;2023-08-06T05:58:05;98692.80;;;22.36
69545;BMP180;56766;52.260;20.746;2023-08-06T06:00:37;98695.40;;;22.56
69545;BMP180;56766;52.260;20.746;2023-08-06T06:03:06;98683.20;;;22.70
69545;BMP180;56766;52.260;20.746;2023-08-06T06:05:33;98682.80;;;22.70
69545;BMP180;56766;52.260;20.746;2023-08-06T06:08:00;98679.40;;;22.70
69545;BMP180;56766;52.260;20.746;2023-08-06T06:10:27;98678.60;;;22.80
69545;BMP180;56766;52.260;20.746;2023-08-06T06:12:58;98676.60;;;22.90
69545;BMP180;56766;52.260;20.746;2023-08-06T06:15:24;98669.80;;;23.00
69545;BMP180;56766;52.260;20.746;2023-08-06T06:17:51;98673.80;;;23.10
69545;BMP180;56766;52.260;20.746;2023-08-06T06:20:18;98669.80;;;23.34
69545;BMP180;56766;52.260;20.746;2023-08-06T06:22:44;98673.40;;;23.50
69545;BMP180;56766;52.260;20.746;2023-08-06T06:25:11;98663.60;;;23.60
69545;BMP180;56766;52.260;20.746;2023-08-06T06:27:38;98661.20;;;23.60
69545;BMP180;56766;52.260;20.746;2023-08-06T06:30:05;98661.80;;;23.60
69545;BMP180;56766;52.260;20.746;2023-08-06T06:32:32;98657.00;;;23.50
69545;BMP180;56766;52.260;20.746;2023-08-06T06:35:03;98656.60;;;23.60
69545;BMP180;56766;52.260;20.746;2023-08-06T06:37:30;98655.20;;;23.94
69545;BMP180;56766;52.260;20.746;2023-08-06T06:39:57;98649.00;;;24.30
69545;BMP180;56766;52.260;20.746;2023-08-06T06:42:23;98645.40;;;24.50
69545;BMP180;56766;52.260;20.746;2023-08-06T06:44:50;98645.00;;;24.60
69545;BMP180;56766;52.260;20.746;2023-08-06T06:47:18;98641.20;;;24.74
69545;BMP180;56766;52.260;20.746;2023-08-06T06:49:48;98643.60;;;24.90
69545;BMP180;56766;52.260;20.746;2023-08-06T06:52:14;98639.00;;;24.98
69545;BMP180;56766;52.260;20.746;2023-08-06T06:54:41;98629.60;;;25.18
69545;BMP180;56766;52.260;20.746;2023-08-06T06:57:10;98624.60;;;25.26
69545;BMP180;56766;52.260;20.746;2023-08-06T06:59:37;98619.40;;;25.26
69545;BMP180;56766;52.260;20.746;2023-08-06T07:02:05;98617.80;;;25.20
69545;BMP180;56766;52.260;20.746;2023-08-06T07:04:32;98619.00;;;25.20
69545;BMP180;56766;52.260;20.746;2023-08-06T07:06:58;98615.60;;;25.30
69545;BMP180;56766;52.260;20.746;2023-08-06T07:09:25;98617.00;;;25.34
69545;BMP180;56766;52.260;20.746;2023-08-06T07:11:52;98619.20;;;25.50
69545;BMP180;56766;52.260;20.746;2023-08-06T07:14:19;98623.20;;;25.60
69545;BMP180;56766;52.260;20.746;2023-08-06T07:16:45;98622.60;;;25.50
69545;BMP180;56766;52.260;20.746;2023-08-06T07:19:14;98626.40;;;25.50
69545;BMP180;56766;52.260;20.746;2023-08-06T07:21:41;98623.20;;;25.42
69545;BMP180;56766;52.260;20.746;2023-08-06T07:24:08;98628.80;;;25.40
69545;BMP180;56766;52.260;20.746;2023-08-06T07:26:36;98633.40;;;25.50
69545;BMP180;56766;52.260;20.746;2023-08-06T07:29:03;98632.80;;;25.80
69545;BMP180;56766;52.260;20.746;2023-08-06T07:31:32;98625.80;;;25.80
69545;BMP180;56766;52.260;20.746;2023-08-06T07:33:59;98620.60;;;25.70
69545;BMP180;56766;52.260;20.746;2023-08-06T07:36:26;98612.40;;;25.62
69545;BMP180;56766;52.260;20.746;2023-08-06T07:38:52;98615.00;;;25.80
69545;BMP180;56766;52.260;20.746;2023-08-06T07:41:23;98613.80;;;25.90
69545;BMP180;56766;52.260;20.746;2023-08-06T07:43:50;98615.60;;;26.00
69545;BMP180;56766;52.260;20.746;2023-08-06T07:46:16;98617.80;;;26.24
69545;BMP180;56766;52.260;20.746;2023-08-06T07:48:43;98607.80;;;26.40
69545;BMP180;56766;52.260;20.746;2023-08-06T07:51:11;98609.60;;;26.50
69545;BMP180;56766;52.260;20.746;2023-08-06T07:53:37;98609.80;;;26.60
69545;BMP180;56766;52.260;20.746;2023-08-06T07:56:04;98611.80;;;26.70
69545;BMP180;56766;52.260;20.746;2023-08-06T07:58:31;98615.00;;;26.80
69545;BMP180;56766;52.260;20.746;2023-08-06T08:01:01;98613.80;;;26.96
69545;BMP180;56766;52.260;20.746;2023-08-06T08:03:28;98608.80;;;27.10
69545;BMP180;56766;52.260;20.746;2023-08-06T08:05:55;98610.00;;;27.22
69545;BMP180;56766;52.260;20.746;2023-08-06T08:08:25;98605.80;;;27.34
69545;BMP180;56766;52.260;20.746;2023-08-06T08:10:53;98606.40;;;27.40
69545;BMP180;56766;52.260;20.746;2023-08-06T08:13:25;98600.40;;;27.50
69545;BMP180;56766;52.260;20.746;2023-08-06T08:15:59;98600.80;;;27.50
69545;BMP180;56766;52.260;20.746;2023-08-06T08:18:25;98597.40;;;27.50
69545;BMP180;56766;52.260;20.746;2023-08-06T08:20:54;98598.20;;;27.50
69545;BMP180;56766;52.260;20.746;2023-08-06T08:23:20;98591.40;;;27.60
69545;BMP180;56766;52.260;20.746;2023-08-06T08:25:47;98588.20;;;27.80
69545;BMP180;56766;52.260;20.746;2023-08-06T08:28:13;98587.60;;;28.00
69545;BMP180;56766;52.260;20.746;2023-08-06T08:30:41;98586.80;;;28.20
69545;BMP180;56766;52.260;20.746;2023-08-06T08:33:08;98584.40;;;28.40
69545;BMP180;56766;52.260;20.746;2023-08-06T08:35:36;98584.80;;;28.60
69545;BMP180;56766;52.260;20.746;2023-08-06T08:38:03;98585.60;;;28.78
69545;BMP180;56766;52.260;20.746;2023-08-06T08:40:45;98579.40;;;28.80
69545;BMP180;56766;52.260;20.746;2023-08-06T08:43:15;98588.00;;;28.90
69545;BMP180;56766;52.260;20.746;2023-08-06T08:45:43;98584.80;;;29.00
69545;BMP180;56766;52.260;20.746;2023-08-06T08:48:17;98579.00;;;29.00
69545;BMP180;56766;52.260;20.746;2023-08-06T08:50:49;98576.40;;;29.00
69545;BMP180;56766;52.260;20.746;2023-08-06T08:53:21;98576.00;;;29.00
69545;BMP180;56766;52.260;20.746;2023-08-06T08:55:54;98574.20;;;28.90
69545;BMP180;56766;52.260;20.746;2023-08-06T08:58:24;98565.40;;;28.90
69545;BMP180;56766;52.260;20.746;2023-08-06T09:00:53;98563.80;;;29.10
69545;BMP180;56766;52.260;20.746;2023-08-06T09:03:20;98553.40;;;29.42
69545;BMP180;56766;52.260;20.746;2023-08-06T09:05:53;98555.80;;;29.60
69545;BMP180;56766;52.260;20.746;2023-08-06T09:08:27;98554.80;;;29.80
69545;BMP180;56766;52.260;20.746;2023-08-06T09:10:58;98551.20;;;30.02
69545;BMP180;56766;52.260;20.746;2023-08-06T09:13:27;98552.00;;;30.30
69545;BMP180;56766;52.260;20.746;2023-08-06T09:15:55;98552.80;;;30.50
69545;BMP180;56766;52.260;20.746;2023-08-06T09:18:26;98542.80;;;30.80
69545;BMP180;56766;52.260;20.746;2023-08-06T09:20:59;98534.00;;;31.00
69545;BMP180;56766;52.260;20.746;2023-08-06T09:23:31;98533.20;;;31.20
69545;BMP180;56766;52.260;20.746;2023-08-06T09:26:00;98529.60;;;31.30
69545;BMP180;56766;52.260;20.746;2023-08-06T09:28:37;98524.20;;;31.10
69545;BMP180;56766;52.260;20.746;2023-08-06T09:31:05;98525.60;;;31.10
69545;BMP180;56766;52.260;20.746;2023-08-06T09:33:32;98528.80;;;31.30
69545;BMP180;56766;52.260;20.746;2023-08-06T09:36:08;98516.80;;;31.50
69545;BMP180;56766;52.260;20.746;2023-08-06T09:38:40;98517.40;;;31.60
69545;BMP180;56766;52.260;20.746;2023-08-06T09:41:07;98514.60;;;31.50
69545;BMP180;56766;52.260;20.746;2023-08-06T09:43:42;98511.40;;;31.42
69545;BMP180;56766;52.260;20.746;2023-08-06T09:46:15;98508.60;;;31.50
69545;BMP180;56766;52.260;20.746;2023-08-06T09:48:50;98505.00;;;31.40
69545;BMP180;56766;52.260;20.746;2023-08-06T09:51:17;98508.80;;;31.28
69545;BMP180;56766;52.260;20.746;2023-08-06T09:53:45;98509.40;;;31.00
69545;BMP180;56766;52.260;20.746;2023-08-06T09:56:17;98506.60;;;30.80
69545;BMP180;56766;52.260;20.746;2023-08-06T09:58:46;98510.00;;;30.62
69545;BMP180;56766;52.260;20.746;2023-08-06T10:01:16;98501.80;;;30.64
69545;BMP180;56766;52.260;20.746;2023-08-06T10:03:44;98496.80;;;30.94
69545;BMP180;56766;52.260;20.746;2023-08-06T10:06:12;98488.00;;;31.26
69545;BMP180;56766;52.260;20.746;2023-08-06T10:08:39;98482.60;;;31.48
69545;BMP180;56766;52.260;20.746;2023-08-06T10:11:08;98480.00;;;31.70
69545;BMP180;56766;52.260;20.746;2023-08-06T10:13:38;98479.40;;;32.10
69545;BMP180;56766;52.260;20.746;2023-08-06T10:16:06;98475.40;;;32.40
69545;BMP180;56766;52.260;20.746;2023-08-06T10:18:38;98474.80;;;32.68
69545;BMP180;56766;52.260;20.746;2023-08-06T10:21:08;98477.80;;;32.94
69545;BMP180;56766;52.260;20.746;2023-08-06T10:23:37;98472.60;;;33.00
69545;BMP180;56766;52.260;20.746;2023-08-06T10:26:07;98478.20;;;33.00
69545;BMP180;56766;52.260;20.746;2023-08-06T10:28:37;98471.80;;;32.80
69545;BMP180;56766;52.260;20.746;2023-08-06T10:31:05;98470.40;;;32.70
69545;BMP180;56766;52.260;20.746;2023-08-06T10:33:46;98464.00;;;32.56
69545;BMP180;56766;52.260;20.746;2023-08-06T10:36:17;98466.00;;;32.30
69545;BMP180;56766;52.260;20.746;2023-08-06T10:38:49;98459.20;;;32.10
69545;BMP180;56766;52.260;20.746;2023-08-06T10:41:29;98460.00;;;32.30
69545;BMP180;56766;52.260;20.746;2023-08-06T10:44:07;98447.80;;;32.40
69545;BMP180;56766;52.260;20.746;2023-08-06T10:46:36;98451.00;;;32.60
69545;BMP180;56766;52.260;20.746;2023-08-06T10:49:04;98444.40;;;32.70
69545;BMP180;56766;52.260;20.746;2023-08-06T10:51:31;98433.40;;;32.82
69545;BMP180;56766;52.260;20.746;2023-08-06T10:53:57;98436.40;;;33.00
69545;BMP180;56766;52.260;20.746;2023-08-06T10:56:25;98429.60;;;33.20
69545;BMP180;56766;52.260;20.746;2023-08-06T10:58:57;98431.60;;;33.10
69545;BMP180;56766;52.260;20.746;2023-08-06T11:01:28;98428.60;;;32.80
69545;BMP180;56766;52.260;20.746;2023-08-06T11:04:02;98423.80;;;32.54
69545;BMP180;56766;52.260;20.746;2023-08-06T11:06:29;98426.20;;;32.40
69545;BMP180;56766;52.260;20.746;2023-08-06T11:08:56;98413.20;;;32.58
69545;BMP180;56766;52.260;20.746;2023-08-06T11:11:23;98416.20;;;32.80
69545;BMP180;56766;52.260;20.746;2023-08-06T11:13:52;98413.60;;;32.60
69545;BMP180;56766;52.260;20.746;2023-08-06T11:16:22;98416.60;;;32.44
69545;BMP180;56766;52.260;20.746;2023-08-06T11:18:51;98417.20;;;32.30
69545;BMP180;56766;52.260;20.746;2023-08-06T11:21:21;98400.80;;;32.12
69545;BMP180;56766;52.260;20.746;2023-08-06T11:23:48;98401.40;;;31.80
69545;BMP180;56766;52.260;20.746;2023-08-06T11:26:20;98408.60;;;31.60
69545;BMP180;56766;52.260;20.746;2023-08-06T11:28:47;98403.40;;;31.40
69545;BMP180;56766;52.260;20.746;2023-08-06T11:31:22;98402.20;;;31.10
69545;BMP180;56766;52.260;20.746;2023-08-06T11:33:55;98403.40;;;30.70
69545;BMP180;56766;52.260;20.746;2023-08-06T11:36:39;98398.60;;;30.40
69545;BMP180;56766;52.260;20.746;2023-08-06T11:39:07;98397.00;;;30.02
69545;BMP180;56766;52.260;20.746;2023-08-06T11:41:36;98398.60;;;29.92
69545;BMP180;56766;52.260;20.746;2023-08-06T11:44:04;98395.20;;;30.14
69545;BMP180;56766;52.260;20.746;2023-08-06T11:46:55;98397.80;;;30.58
69545;BMP180;56766;52.260;20.746;2023-08-06T11:55:05;98376.60;;;30.80
69545;BMP180;56766;52.260;20.746;2023-08-06T11:57:35;98377.00;;;30.62
69545;BMP180;56766;52.260;20.746;2023-08-06T12:00:14;98372.80;;;30.40
69545;BMP180;56766;52.260;20.746;2023-08-06T12:02:44;98375.60;;;30.10
69545;BMP180;56766;52.260;20.746;2023-08-06T12:05:12;98368.20;;;30.00
69545;BMP180;56766;52.260;20.746;2023-08-06T12:07:48;98363.60;;;30.18
69545;BMP180;56766;52.260;20.746;2023-08-06T12:10:18;98363.60;;;30.64
69545;BMP180;56766;52.260;20.746;2023-08-06T12:12:46;98358.80;;;31.08
69545;BMP180;56766;52.260;20.746;2023-08-06T12:15:14;98356.20;;;31.20
69545;BMP180;56766;52.260;20.746;2023-08-06T12:17:41;98349.00;;;31.20
69545;BMP180;56766;52.260;20.746;2023-08-06T12:20:10;98340.80;;;31.00
69545;BMP180;56766;52.260;20.746;2023-08-06T12:22:38;98342.20;;;30.80
69545;BMP180;56766;52.260;20.746;2023-08-06T12:25:09;98347.00;;;30.70
69545;BMP180;56766;52.260;20.746;2023-08-06T12:27:41;98344.80;;;30.80
69545;BMP180;56766;52.260;20.746;2023-08-06T12:30:10;98336.40;;;30.90
69545;BMP180;56766;52.260;20.746;2023-08-06T12:32:38;98343.40;;;30.92
69545;BMP180;56766;52.260;20.746;2023-08-06T12:35:06;98349.00;;;30.90
69545;BMP180;56766;52.260;20.746;2023-08-06T12:37:37;98352.60;;;30.80
69545;BMP180;56766;52.260;20.746;2023-08-06T12:40:08;98355.00;;;30.70
69545;BMP180;56766;52.260;20.746;2023-08-06T12:42:35;98348.20;;;30.44
69545;BMP180;56766;52.260;20.746;2023-08-06T12:45:02;98344.40;;;30.20
69545;BMP180;56766;52.260;20.746;2023-08-06T12:47:29;98343.80;;;29.90
69545;BMP180;56766;52.260;20.746;2023-08-06T12:49:55;98342.20;;;29.66
69545;BMP180;56766;52.260;20.746;2023-08-06T12:52:22;98332.80;;;29.40
69545;BMP180;56766;52.260;20.746;2023-08-06T12:54:51;98325.40;;;29.18
69545;BMP180;56766;52.260;20.746;2023-08-06T12:57:18;98331.40;;;28.96
69545;BMP180;56766;52.260;20.746;2023-08-06T12:59:45;98337.40;;;28.80
69545;BMP180;56766;52.260;20.746;2023-08-06T13:02:11;98337.40;;;28.80
69545;BMP180;56766;52.260;20.746;2023-08-06T13:04:38;98336.80;;;28.80
69545;BMP180;56766;52.260;20.746;2023-08-06T13:07:06;98345.80;;;29.00
69545;BMP180;56766;52.260;20.746;2023-08-06T13:09:33;98346.00;;;29.20
69545;BMP180;56766;52.260;20.746;2023-08-06T13:12:00;98344.80;;;29.40
69545;BMP180;56766;52.260;20.746;2023-08-06T13:14:29;98340.40;;;29.50
69545;BMP180;56766;52.260;20.746;2023-08-06T13:16:56;98343.20;;;29.52
69545;BMP180;56766;52.260;20.746;2023-08-06T13:19:23;98358.00;;;29.70
69545;BMP180;56766;52.260;20.746;2023-08-06T13:22:03;98365.40;;;30.00
69545;BMP180;56766;52.260;20.746;2023-08-06T13:24:31;98370.20;;;30.10
69545;BMP180;56766;52.260;20.746;2023-08-06T13:27:00;98366.60;;;30.30
69545;BMP180;56766;52.260;20.746;2023-08-06T13:29:27;98366.80;;;30.56
69545;BMP180;56766;52.260;20.746;2023-08-06T13:31:55;98365.40;;;30.80
69545;BMP180;56766;52.260;20.746;2023-08-06T13:34:22;98373.40;;;31.00
69545;BMP180;56766;52.260;20.746;2023-08-06T13:36:49;98371.00;;;31.30
69545;BMP180;56766;52.260;20.746;2023-08-06T13:39:23;98362.80;;;31.30
69545;BMP180;56766;52.260;20.746;2023-08-06T13:41:50;98363.80;;;31.20
69545;BMP180;56766;52.260;20.746;2023-08-06T13:44:16;98362.40;;;30.90
69545;BMP180;56766;52.260;20.746;2023-08-06T13:46:43;98368.40;;;30.50
69545;BMP180;56766;52.260;20.746;2023-08-06T13:49:10;98378.60;;;30.30
69545;BMP180;56766;52.260;20.746;2023-08-06T13:51:38;98377.60;;;30.30
69545;BMP180;56766;52.260;20.746;2023-08-06T13:54:04;98372.60;;;30.40
69545;BMP180;56766;52.260;20.746;2023-08-06T13:56:33;98367.60;;;30.34
69545;BMP180;56766;52.260;20.746;2023-08-06T13:59:00;98369.00;;;30.30
69545;BMP180;56766;52.260;20.746;2023-08-06T14:01:30;98369.40;;;30.20
69545;BMP180;56766;52.260;20.746;2023-08-06T14:03:57;98372.60;;;30.10
69545;BMP180;56766;52.260;20.746;2023-08-06T14:06:27;98375.00;;;30.02
69545;BMP180;56766;52.260;20.746;2023-08-06T14:08:54;98378.60;;;29.90
69545;BMP180;56766;52.260;20.746;2023-08-06T14:11:20;98382.40;;;29.70
69545;BMP180;56766;52.260;20.746;2023-08-06T14:13:47;98385.40;;;29.50